createdAt,value
2018-12-21T00:00:40.032Z,92.97
2018-12-21T00:01:39.991Z,93.60
2018-12-21T00:02:39.979Z,92.86
2018-12-21T00:03:39.969Z,93.39
2018-12-21T00:04:39.956Z,93.70
2018-12-21T00:05:39.968Z,93.49
2018-12-21T00:06:39.935Z,92.97
2018-12-21T00:07:39.923Z,93.49
2018-12-21T00:08:39.915Z,93.39
2018-12-21T00:09:39.915Z,93.39
2018-12-21T00:10:39.892Z,93.29
2018-12-21T00:11:39.923Z,93.29
2018-12-21T00:12:39.876Z,93.39
2018-12-21T00:13:39.867Z,93.24
2018-12-21T00:14:39.857Z,93.03
2018-12-21T00:15:39.858Z,92.82
2018-12-21T00:16:39.823Z,92.51
2018-12-21T00:17:39.822Z,92.82
2018-12-21T00:18:39.802Z,93.14
2018-12-21T00:19:39.799Z,92.82
2018-12-21T00:20:39.782Z,92.61
2018-12-21T00:21:39.782Z,93.24
2018-12-21T00:22:39.800Z,93.29
2018-12-21T00:23:39.745Z,93.49
2018-12-21T00:24:39.740Z,93.39
2018-12-21T00:25:39.733Z,93.29
2018-12-21T00:26:39.715Z,93.49
2018-12-21T00:27:39.717Z,92.86
2018-12-21T00:28:39.733Z,93.29
2018-12-21T00:29:39.691Z,93.39
2018-12-21T00:30:39.668Z,93.29
2018-12-21T00:31:39.659Z,92.76
2018-12-21T00:32:39.648Z,93.70
2018-12-21T00:33:39.649Z,93.49
2018-12-21T00:34:39.646Z,94.32
2018-12-21T00:35:39.622Z,94.43
2018-12-21T00:36:39.724Z,93.49
2018-12-21T00:37:39.598Z,93.60
2018-12-21T00:38:39.577Z,94.12
2018-12-21T00:39:39.591Z,94.12
2018-12-21T00:40:39.556Z,94.01
2018-12-21T00:41:39.551Z,93.91
2018-12-21T00:42:39.541Z,94.07
2018-12-21T00:43:39.534Z,93.14
2018-12-21T00:44:39.530Z,93.66
2018-12-21T00:45:39.520Z,93.55
2018-12-21T00:46:39.486Z,93.35
2018-12-21T00:47:39.485Z,93.35
2018-12-21T00:48:39.471Z,93.24
2018-12-21T00:49:39.499Z,93.14
2018-12-21T00:50:39.452Z,93.24
2018-12-21T00:51:39.461Z,93.24
2018-12-21T00:52:39.426Z,93.14
2018-12-21T00:53:39.415Z,93.45
2018-12-21T00:54:39.400Z,93.24
2018-12-21T00:55:39.418Z,93.55
2018-12-21T00:56:39.382Z,93.45
2018-12-21T00:57:39.381Z,93.14
2018-12-21T00:58:39.352Z,93.55
2018-12-21T00:59:39.343Z,93.24
2018-12-21T01:00:39.334Z,93.24
2018-12-21T01:01:39.351Z,93.35
2018-12-21T01:02:39.326Z,93.55
2018-12-21T01:03:39.317Z,93.55
2018-12-21T01:04:39.291Z,93.45
2018-12-21T01:05:39.286Z,93.35
2018-12-21T01:06:39.276Z,93.97
2018-12-21T01:07:39.269Z,94.12
2018-12-21T01:08:39.249Z,94.18
2018-12-21T01:09:39.263Z,93.35
2018-12-21T01:10:39.218Z,93.14
2018-12-21T01:11:39.216Z,93.87
2018-12-21T01:12:39.222Z,93.35
2018-12-21T01:13:39.196Z,93.14
2018-12-21T01:14:39.185Z,92.72
2018-12-21T01:15:39.174Z,92.82
2018-12-21T01:16:39.160Z,93.35
2018-12-21T01:17:39.146Z,93.55
2018-12-21T01:18:39.161Z,93.24
2018-12-21T01:19:39.124Z,93.55
2018-12-21T01:20:39.121Z,93.55
2018-12-21T01:21:39.234Z,93.24
2018-12-21T01:22:39.094Z,93.24
2018-12-21T01:23:39.077Z,93.35
2018-12-21T01:24:39.072Z,93.45
2018-12-21T01:25:39.055Z,93.14
2018-12-21T01:26:39.046Z,93.24
2018-12-21T01:27:39.034Z,93.14
2018-12-21T01:28:39.014Z,93.35
2018-12-21T01:29:39.030Z,93.35
2018-12-21T01:30:39.001Z,93.35
2018-12-21T01:31:38.986Z,93.30
2018-12-21T01:32:38.993Z,93.14
2018-12-21T01:33:38.961Z,93.55
2018-12-21T01:34:38.958Z,93.45
2018-12-21T01:35:38.961Z,93.03
2018-12-21T01:36:38.933Z,93.35
2018-12-21T01:37:38.917Z,92.82
2018-12-21T01:38:38.919Z,93.14
2018-12-21T01:39:38.897Z,93.45
2018-12-21T01:40:38.887Z,93.97
2018-12-21T01:41:38.891Z,93.45
2018-12-21T01:42:38.866Z,93.76
2018-12-21T01:43:38.849Z,94.18
2018-12-21T01:44:38.856Z,93.97
2018-12-21T01:45:38.835Z,93.76
2018-12-21T01:46:38.849Z,93.97
2018-12-21T01:47:38.807Z,93.97
2018-12-21T01:48:38.800Z,93.76
2018-12-21T01:49:38.782Z,93.45
2018-12-21T01:50:38.795Z,94.28
2018-12-21T01:51:46.930Z,93.76
2018-12-21T01:52:38.775Z,93.14
2018-12-21T01:53:38.738Z,93.76
2018-12-21T01:54:38.736Z,93.87
2018-12-21T01:55:38.719Z,94.28
2018-12-21T01:56:38.732Z,93.35
2018-12-21T01:57:38.703Z,93.03
2018-12-21T01:58:38.693Z,93.03
2018-12-21T01:59:38.676Z,93.24
2018-12-21T02:00:38.666Z,93.45
2018-12-21T02:01:38.650Z,93.35
2018-12-21T02:02:38.671Z,93.35
2018-12-21T02:03:38.654Z,93.55
2018-12-21T02:04:38.623Z,93.14
2018-12-21T02:05:38.621Z,93.14
2018-12-21T02:06:38.602Z,93.03
2018-12-21T02:07:38.589Z,93.03
2018-12-21T02:08:38.591Z,93.03
2018-12-21T02:09:38.596Z,92.82
2018-12-21T02:10:38.555Z,92.57
2018-12-21T02:11:38.548Z,93.10
2018-12-21T02:12:38.532Z,92.57
2018-12-21T02:13:38.587Z,92.47
2018-12-21T02:14:38.538Z,92.47
2018-12-21T02:15:38.517Z,92.36
2018-12-21T02:16:38.490Z,92.26
2018-12-21T02:17:38.485Z,92.10
2018-12-21T02:18:38.467Z,92.20
2018-12-21T02:19:38.451Z,92.47
2018-12-21T02:20:38.463Z,92.51
2018-12-21T02:21:38.452Z,93.03
2018-12-21T02:22:38.419Z,92.82
2018-12-21T02:23:38.409Z,92.82
2018-12-21T02:24:38.398Z,93.10
2018-12-21T02:25:38.384Z,93.30
2018-12-21T02:26:38.401Z,92.26
2018-12-21T02:27:38.385Z,92.57
2018-12-21T02:28:38.351Z,92.26
2018-12-21T02:29:38.342Z,92.26
2018-12-21T02:30:38.326Z,92.47
2018-12-21T02:31:38.324Z,92.26
2018-12-21T02:32:38.319Z,92.05
2018-12-21T02:33:38.310Z,92.47
2018-12-21T02:34:38.285Z,92.57
2018-12-21T02:35:38.281Z,92.47
2018-12-21T02:36:38.267Z,92.99
2018-12-21T02:37:38.251Z,92.78
2018-12-21T02:38:38.283Z,92.88
2018-12-21T02:39:38.235Z,93.10
2018-12-21T02:40:38.219Z,93.20
2018-12-21T02:41:38.207Z,93.10
2018-12-21T02:42:38.201Z,93.41
2018-12-21T02:43:38.287Z,93.41
2018-12-21T02:44:38.219Z,93.30
2018-12-21T02:45:38.172Z,93.41
2018-12-21T02:46:38.154Z,92.93
2018-12-21T02:47:38.138Z,92.82
2018-12-21T02:48:38.127Z,93.66
2018-12-21T02:49:38.118Z,93.24
2018-12-21T02:50:38.132Z,93.14
2018-12-21T02:51:38.096Z,93.66
2018-12-21T02:52:38.079Z,93.55
2018-12-21T02:53:38.073Z,92.99
2018-12-21T02:54:38.063Z,93.14
2018-12-21T02:55:38.080Z,93.03
2018-12-21T02:56:38.070Z,93.35
2018-12-21T02:57:38.028Z,93.51
2018-12-21T02:58:38.039Z,93.55
2018-12-21T02:59:38.006Z,93.76
2018-12-21T03:00:37.995Z,92.99
2018-12-21T03:01:38.003Z,92.57
2018-12-21T03:02:38.004Z,92.78
2018-12-21T03:03:37.959Z,92.78
2018-12-21T03:04:37.953Z,93.20
2018-12-21T03:05:37.939Z,92.88
2018-12-21T03:06:37.980Z,93.10
2018-12-21T03:07:37.926Z,92.78
2018-12-21T03:08:37.911Z,92.26
2018-12-21T03:09:37.898Z,92.47
2018-12-21T03:10:37.883Z,92.36
2018-12-21T03:11:37.875Z,92.47
2018-12-21T03:12:37.893Z,92.36
2018-12-21T03:13:37.862Z,92.05
2018-12-21T03:14:37.842Z,92.16
2018-12-21T03:15:37.832Z,92.26
2018-12-21T03:16:37.820Z,91.95
2018-12-21T03:17:37.807Z,91.95
2018-12-21T03:18:37.829Z,92.05
2018-12-21T03:19:37.784Z,92.16
2018-12-21T03:20:37.772Z,91.95
2018-12-21T03:21:37.758Z,91.53
2018-12-21T03:22:37.763Z,91.95
2018-12-21T03:23:37.744Z,91.95
2018-12-21T03:24:37.748Z,91.85
2018-12-21T03:25:37.726Z,92.05
2018-12-21T03:26:37.720Z,91.53
2018-12-21T03:27:37.707Z,91.53
2018-12-21T03:28:37.722Z,92.16
2018-12-21T03:29:37.713Z,92.16
2018-12-21T03:30:37.672Z,92.05
2018-12-21T03:31:37.662Z,92.16
2018-12-21T03:32:37.663Z,91.85
2018-12-21T03:33:37.649Z,92.26
2018-12-21T03:34:37.636Z,91.74
2018-12-21T03:35:37.651Z,91.95
2018-12-21T03:36:37.639Z,92.16
2018-12-21T03:37:37.582Z,91.53
2018-12-21T03:38:37.576Z,91.95
2018-12-21T03:39:37.564Z,91.85
2018-12-21T03:40:37.573Z,91.74
2018-12-21T03:41:37.629Z,91.53
2018-12-21T03:42:37.543Z,91.95
2018-12-21T03:43:37.537Z,92.16
2018-12-21T03:44:37.535Z,92.05
2018-12-21T03:45:37.501Z,92.05
2018-12-21T03:46:37.505Z,91.85
2018-12-21T03:47:37.517Z,91.95
2018-12-21T03:48:37.498Z,92.05
2018-12-21T03:49:37.453Z,91.85
2018-12-21T03:50:37.466Z,91.95
2018-12-21T03:51:38.479Z,91.85
2018-12-21T03:52:37.736Z,91.74
2018-12-21T03:53:37.431Z,91.53
2018-12-21T03:54:37.461Z,91.95
2018-12-21T03:55:37.406Z,91.85
2018-12-21T03:56:37.383Z,92.16
2018-12-21T03:57:37.385Z,91.85
2018-12-21T03:58:37.393Z,91.85
2018-12-21T03:59:37.360Z,91.53
2018-12-21T04:00:37.378Z,92.20
2018-12-21T04:01:37.335Z,91.85
2018-12-21T04:02:37.309Z,92.16
2018-12-21T04:03:37.311Z,91.85
2018-12-21T04:04:37.295Z,91.85
2018-12-21T04:05:37.298Z,92.41
2018-12-21T04:06:37.294Z,91.74
2018-12-21T04:07:37.282Z,91.74
2018-12-21T04:08:37.248Z,91.74
2018-12-21T04:09:37.285Z,92.05
2018-12-21T04:10:37.220Z,92.05
2018-12-21T04:11:37.211Z,91.53
2018-12-21T04:12:37.203Z,91.95
2018-12-21T04:13:37.201Z,91.85
2018-12-21T04:14:37.171Z,92.16
2018-12-21T04:15:37.232Z,91.85
2018-12-21T04:16:37.221Z,91.85
2018-12-21T04:17:37.174Z,92.16
2018-12-21T04:18:37.160Z,92.05
2018-12-21T04:19:37.134Z,91.22
2018-12-21T04:20:37.138Z,91.43
2018-12-21T04:21:37.107Z,91.43
2018-12-21T04:22:37.118Z,91.43
2018-12-21T04:23:37.081Z,91.33
2018-12-21T04:24:37.100Z,91.02
2018-12-21T04:25:37.052Z,91.53
2018-12-21T04:26:37.095Z,91.22
2018-12-21T04:27:37.047Z,91.22
2018-12-21T04:28:37.071Z,91.33
2018-12-21T04:29:37.021Z,91.22
2018-12-21T04:30:37.048Z,91.22
2018-12-21T04:31:36.987Z,91.33
2018-12-21T04:32:37.014Z,91.12
2018-12-21T04:33:36.971Z,91.53
2018-12-21T04:34:36.994Z,91.43
2018-12-21T04:35:37.004Z,91.33
2018-12-21T04:36:36.951Z,91.33
2018-12-21T04:37:36.954Z,91.33
2018-12-21T04:38:36.969Z,91.33
2018-12-21T04:39:36.957Z,91.33
2018-12-21T04:40:36.899Z,91.33
2018-12-21T04:41:36.897Z,91.43
2018-12-21T04:42:36.878Z,91.33
2018-12-21T04:43:36.932Z,91.43
2018-12-21T04:44:36.848Z,91.53
2018-12-21T04:45:36.842Z,91.53
2018-12-21T04:46:36.842Z,91.43
2018-12-21T04:47:36.830Z,91.22
2018-12-21T04:48:36.798Z,91.53
2018-12-21T04:49:36.813Z,91.33
2018-12-21T04:50:36.819Z,91.22
2018-12-21T04:51:36.762Z,91.33
2018-12-21T04:52:43.210Z,91.43
2018-12-21T04:53:37.765Z,91.43
2018-12-21T04:54:36.754Z,91.53
2018-12-21T04:55:36.764Z,91.53
2018-12-21T04:56:36.704Z,91.33
2018-12-21T04:57:36.700Z,91.43
2018-12-21T04:58:36.702Z,91.33
2018-12-21T04:59:36.695Z,91.49
2018-12-21T05:00:36.718Z,91.49
2018-12-21T05:01:36.665Z,91.53
2018-12-21T05:02:36.669Z,90.81
2018-12-21T05:03:37.361Z,90.81
2018-12-21T05:04:36.613Z,91.53
2018-12-21T05:05:36.608Z,91.33
2018-12-21T05:06:36.633Z,91.53
2018-12-21T05:07:36.631Z,91.33
2018-12-21T05:08:36.591Z,91.43
2018-12-21T05:09:36.606Z,91.33
2018-12-21T05:10:36.567Z,91.12
2018-12-21T05:11:36.571Z,91.43
2018-12-21T05:12:37.259Z,90.91
2018-12-21T05:13:36.548Z,91.64
2018-12-21T05:14:36.507Z,91.43
2018-12-21T05:15:36.532Z,91.43
2018-12-21T05:16:36.474Z,91.43
2018-12-21T05:17:36.533Z,91.22
2018-12-21T05:18:36.498Z,91.33
2018-12-21T05:19:36.456Z,91.53
2018-12-21T05:20:37.247Z,91.53
2018-12-21T05:21:36.485Z,91.43
2018-12-21T05:22:36.419Z,91.43
2018-12-21T05:23:36.444Z,92.05
2018-12-21T05:24:36.424Z,91.85
2018-12-21T05:25:37.270Z,92.05
2018-12-21T05:26:36.454Z,92.05
2018-12-21T05:27:36.353Z,91.95
2018-12-21T05:28:57.507Z,91.85
2018-12-21T05:29:39.528Z,92.05
2018-12-21T05:30:36.347Z,92.05
2018-12-21T05:31:37.231Z,91.95
2018-12-21T05:32:36.306Z,92.05
2018-12-21T05:33:37.244Z,92.05
2018-12-21T05:34:36.309Z,92.05
2018-12-21T05:35:36.262Z,91.85
2018-12-21T05:36:36.262Z,91.95
2018-12-21T05:37:36.245Z,91.89
2018-12-21T05:38:36.225Z,91.53
2018-12-21T05:39:36.228Z,91.89
2018-12-21T05:40:36.244Z,91.89
2018-12-21T05:41:36.237Z,91.89
2018-12-21T05:42:36.179Z,92.51
2018-12-21T05:43:36.179Z,91.85
2018-12-21T05:44:36.163Z,91.85
2018-12-21T05:45:36.170Z,91.95
2018-12-21T05:46:36.140Z,92.16
2018-12-21T05:47:36.132Z,91.74
2018-12-21T05:48:36.134Z,92.16
2018-12-21T05:49:36.102Z,91.78
2018-12-21T05:50:36.091Z,92.20
2018-12-21T05:51:36.106Z,91.95
2018-12-21T05:52:36.063Z,91.78
2018-12-21T05:53:36.059Z,91.95
2018-12-21T05:54:36.040Z,91.64
2018-12-21T05:55:36.055Z,91.85
2018-12-21T05:56:36.028Z,91.85
2018-12-21T05:57:36.015Z,92.05
2018-12-21T05:58:35.999Z,91.78
2018-12-21T05:59:35.989Z,92.05
2018-12-21T06:00:36.221Z,91.95
2018-12-21T06:01:35.978Z,92.41
2018-12-21T06:02:35.986Z,91.89
2018-12-21T06:03:35.945Z,91.99
2018-12-21T06:04:35.934Z,91.99
2018-12-21T06:05:35.925Z,92.10
2018-12-21T06:06:35.907Z,91.89
2018-12-21T06:07:35.910Z,92.20
2018-12-21T06:08:35.910Z,91.68
2018-12-21T06:09:35.882Z,91.99
2018-12-21T06:10:35.868Z,91.89
2018-12-21T06:11:35.862Z,91.89
2018-12-21T06:12:35.848Z,91.89
2018-12-21T06:13:36.755Z,91.99
2018-12-21T06:14:35.849Z,92.05
2018-12-21T06:15:35.810Z,91.85
2018-12-21T06:16:35.803Z,92.20
2018-12-21T06:17:36.728Z,92.05
2018-12-21T06:18:35.770Z,92.05
2018-12-21T06:19:35.790Z,92.10
2018-12-21T06:20:35.752Z,92.10
2018-12-21T06:21:35.745Z,91.99
2018-12-21T06:22:35.728Z,91.95
2018-12-21T06:23:35.720Z,91.85
2018-12-21T06:24:35.800Z,92.05
2018-12-21T06:25:38.746Z,91.95
2018-12-21T06:26:35.687Z,91.53
2018-12-21T06:27:36.239Z,91.85
2018-12-21T06:28:56.833Z,91.85
2018-12-21T06:29:35.649Z,92.05
2018-12-21T06:30:35.647Z,92.16
2018-12-21T06:31:35.639Z,91.95
2018-12-21T06:32:35.616Z,91.53
2018-12-21T06:33:35.605Z,91.85
2018-12-21T06:34:35.594Z,91.85
2018-12-21T06:35:35.580Z,91.95
2018-12-21T06:36:35.589Z,91.95
2018-12-21T06:37:35.559Z,92.05
2018-12-21T06:38:35.560Z,91.85
2018-12-21T06:39:35.536Z,91.74
2018-12-21T06:40:35.522Z,92.16
2018-12-21T06:41:35.521Z,92.26
2018-12-21T06:42:35.547Z,91.74
2018-12-21T06:43:35.489Z,91.95
2018-12-21T06:44:35.487Z,92.16
2018-12-21T06:45:35.468Z,92.05
2018-12-21T06:46:35.454Z,92.05
2018-12-21T06:47:35.448Z,91.85
2018-12-21T06:48:35.464Z,91.85
2018-12-21T06:49:35.421Z,91.95
2018-12-21T06:50:35.412Z,91.95
2018-12-21T06:51:35.405Z,91.95
2018-12-21T06:52:35.394Z,91.53
2018-12-21T06:53:35.390Z,91.43
2018-12-21T06:54:35.373Z,91.22
2018-12-21T06:55:35.358Z,91.43
2018-12-21T06:56:35.353Z,91.85
2018-12-21T06:57:35.345Z,91.33
2018-12-21T06:58:35.329Z,91.85
2018-12-21T06:59:35.337Z,91.43
2018-12-21T07:00:35.302Z,91.33
2018-12-21T07:01:35.286Z,91.43
2018-12-21T07:02:35.406Z,91.43
2018-12-21T07:03:35.272Z,91.53
2018-12-21T07:04:35.261Z,91.33
2018-12-21T07:05:35.279Z,91.33
2018-12-21T07:06:35.237Z,91.33
2018-12-21T07:07:35.229Z,91.22
2018-12-21T07:08:35.230Z,91.37
2018-12-21T07:09:35.209Z,90.91
2018-12-21T07:10:35.209Z,91.33
2018-12-21T07:11:35.237Z,91.58
2018-12-21T07:12:35.163Z,91.43
2018-12-21T07:13:35.159Z,91.37
2018-12-21T07:14:35.172Z,91.64
2018-12-21T07:15:35.144Z,91.22
2018-12-21T07:16:35.156Z,91.33
2018-12-21T07:17:35.120Z,91.22
2018-12-21T07:18:35.115Z,91.74
2018-12-21T07:19:35.088Z,91.43
2018-12-21T07:20:35.093Z,91.64
2018-12-21T07:21:35.178Z,91.43
2018-12-21T07:22:35.082Z,91.43
2018-12-21T07:23:35.052Z,91.53
2018-12-21T07:24:35.034Z,91.33
2018-12-21T07:25:35.027Z,91.64
2018-12-21T07:26:35.008Z,91.33
2018-12-21T07:27:35.023Z,91.22
2018-12-21T07:28:42.834Z,91.22
2018-12-21T07:29:34.988Z,91.33
2018-12-21T07:30:34.973Z,91.43
2018-12-21T07:31:34.952Z,91.33
2018-12-21T07:32:34.965Z,91.53
2018-12-21T07:33:34.961Z,91.22
2018-12-21T07:34:34.924Z,91.33
2018-12-21T07:35:34.917Z,91.33
2018-12-21T07:36:34.950Z,91.43
2018-12-21T07:37:34.892Z,91.12
2018-12-21T07:38:35.750Z,91.22
2018-12-21T07:39:34.890Z,91.28
2018-12-21T07:40:34.865Z,90.81
2018-12-21T07:41:34.839Z,90.70
2018-12-21T07:42:34.836Z,90.77
2018-12-21T07:43:41.782Z,90.66
2018-12-21T07:44:34.825Z,90.04
2018-12-21T07:45:34.812Z,90.56
2018-12-21T07:46:34.802Z,90.04
2018-12-21T07:47:34.789Z,90.35
2018-12-21T07:48:34.767Z,90.04
2018-12-21T07:49:35.727Z,90.04
2018-12-21T07:50:34.827Z,90.19
2018-12-21T07:51:34.727Z,90.56
2018-12-21T07:52:34.722Z,90.66
2018-12-21T07:53:35.917Z,90.45
2018-12-21T07:54:34.695Z,90.56
2018-12-21T07:55:34.682Z,90.66
2018-12-21T07:56:34.760Z,90.14
2018-12-21T07:57:34.676Z,90.04
2018-12-21T07:58:34.649Z,90.66
2018-12-21T07:59:34.645Z,90.14
2018-12-21T08:00:34.624Z,90.56
2018-12-21T08:01:34.623Z,90.56
2018-12-21T08:02:34.624Z,90.35
2018-12-21T08:03:34.602Z,90.56
2018-12-21T08:04:34.601Z,90.35
2018-12-21T08:05:34.566Z,90.45
2018-12-21T08:06:34.577Z,90.56
2018-12-21T08:07:34.598Z,90.45
2018-12-21T08:08:34.543Z,90.56
2018-12-21T08:09:34.537Z,90.56
2018-12-21T08:10:34.533Z,90.45
2018-12-21T08:11:34.509Z,90.56
2018-12-21T08:12:34.501Z,90.56
2018-12-21T08:13:48.782Z,90.56
2018-12-21T08:14:34.482Z,90.14
2018-12-21T08:15:35.233Z,90.35
2018-12-21T08:16:34.446Z,89.52
2018-12-21T08:17:34.441Z,89.52
2018-12-21T08:18:34.426Z,89.94
2018-12-21T08:19:34.450Z,89.37
2018-12-21T08:20:34.410Z,89.17
2018-12-21T08:21:34.405Z,89.37
2018-12-21T08:22:34.381Z,89.27
2018-12-21T08:23:34.394Z,89.37
2018-12-21T08:24:34.370Z,89.79
2018-12-21T08:25:34.377Z,88.75
2018-12-21T08:26:35.331Z,89.48
2018-12-21T08:27:34.344Z,90.62
2018-12-21T08:28:34.311Z,89.79
2018-12-21T08:29:34.312Z,88.96
2018-12-21T08:30:34.323Z,88.96
2018-12-21T08:31:34.284Z,89.52
2018-12-21T08:32:34.270Z,89.58
2018-12-21T08:33:34.281Z,89.21
2018-12-21T08:34:34.252Z,89.69
2018-12-21T08:35:34.245Z,89.48
2018-12-21T08:36:34.260Z,89.31
2018-12-21T08:37:34.219Z,89.42
2018-12-21T08:38:34.207Z,89.52
2018-12-21T08:39:34.200Z,89.52
2018-12-21T08:40:34.221Z,89.42
2018-12-21T08:41:34.190Z,89.42
2018-12-21T08:42:34.188Z,89.48
2018-12-21T08:43:34.195Z,88.75
2018-12-21T08:44:34.144Z,89.37
2018-12-21T08:45:34.125Z,89.27
2018-12-21T08:46:34.114Z,89.27
2018-12-21T08:47:34.160Z,89.37
2018-12-21T08:48:34.098Z,89.58
2018-12-21T08:49:34.099Z,89.06
2018-12-21T08:50:34.071Z,89.27
2018-12-21T08:51:34.066Z,89.06
2018-12-21T08:52:34.088Z,89.06
2018-12-21T08:53:35.190Z,88.75
2018-12-21T08:54:34.025Z,88.54
2018-12-21T08:55:34.036Z,88.09
2018-12-21T08:56:34.005Z,88.61
2018-12-21T08:57:34.006Z,88.51
2018-12-21T08:58:33.985Z,88.51
2018-12-21T08:59:34.270Z,88.40
2018-12-21T09:00:33.967Z,88.20
2018-12-21T09:01:33.950Z,88.40
2018-12-21T09:02:33.935Z,88.40
2018-12-21T09:03:33.941Z,88.30
2018-12-21T09:04:33.953Z,88.30
2018-12-21T09:05:34.008Z,88.20
2018-12-21T09:06:33.916Z,88.61
2018-12-21T09:07:33.872Z,88.51
2018-12-21T09:08:33.868Z,88.61
2018-12-21T09:09:33.858Z,89.06
2018-12-21T09:10:33.867Z,89.44
2018-12-21T09:11:33.863Z,89.65
2018-12-21T09:12:33.829Z,89.65
2018-12-21T09:13:33.809Z,89.44
2018-12-21T09:14:33.807Z,90.41
2018-12-21T09:15:33.808Z,90.52
2018-12-21T09:16:33.789Z,90.52
2018-12-21T09:17:33.798Z,90.72
2018-12-21T09:18:33.759Z,91.24
2018-12-21T09:19:33.752Z,91.45
2018-12-21T09:20:33.738Z,91.76
2018-12-21T09:21:33.763Z,91.76
2018-12-21T09:22:33.740Z,92.49
2018-12-21T09:23:33.711Z,91.76
2018-12-21T09:24:33.733Z,92.38
2018-12-21T09:25:33.674Z,93.05
2018-12-21T09:26:33.669Z,92.53
2018-12-21T09:27:33.681Z,92.74
2018-12-21T09:28:33.651Z,92.94
2018-12-21T09:29:33.627Z,93.22
2018-12-21T09:30:33.634Z,93.37
2018-12-21T09:31:33.635Z,94.20
2018-12-21T09:32:33.601Z,93.88
2018-12-21T09:33:33.620Z,93.68
2018-12-21T09:34:33.580Z,93.88
2018-12-21T09:35:33.571Z,94.30
2018-12-21T09:36:33.554Z,93.99
2018-12-21T09:37:33.545Z,94.67
2018-12-21T09:38:33.581Z,94.88
2018-12-21T09:39:33.528Z,94.61
2018-12-21T09:40:33.514Z,94.78
2018-12-21T09:41:33.502Z,94.15
2018-12-21T09:42:33.485Z,94.15
2018-12-21T09:43:33.485Z,94.05
2018-12-21T09:44:33.515Z,94.15
2018-12-21T09:45:33.456Z,93.95
2018-12-21T09:46:33.446Z,93.84
2018-12-21T09:47:33.434Z,93.38
2018-12-21T09:48:33.429Z,93.70
2018-12-21T09:49:33.412Z,93.80
2018-12-21T09:50:33.449Z,93.63
2018-12-21T09:51:33.393Z,93.59
2018-12-21T09:52:33.381Z,93.49
2018-12-21T09:53:33.375Z,93.80
2018-12-21T09:54:33.356Z,93.90
2018-12-21T09:55:33.355Z,93.59
2018-12-21T09:56:33.378Z,93.59
2018-12-21T09:57:33.325Z,93.59
2018-12-21T09:58:33.318Z,93.59
2018-12-21T09:59:33.300Z,93.28
2018-12-21T10:00:33.296Z,93.38
2018-12-21T10:01:33.321Z,92.86
2018-12-21T10:02:35.927Z,92.35
2018-12-21T10:03:33.272Z,92.35
2018-12-21T10:04:33.256Z,92.24
2018-12-21T10:05:33.249Z,91.72
2018-12-21T10:06:33.234Z,91.37
2018-12-21T10:07:33.238Z,91.89
2018-12-21T10:08:33.193Z,91.89
2018-12-21T10:09:34.174Z,91.99
2018-12-21T10:10:33.174Z,91.68
2018-12-21T10:11:33.175Z,91.68
2018-12-21T10:12:33.151Z,91.27
2018-12-21T10:13:33.174Z,91.27
2018-12-21T10:14:33.128Z,91.37
2018-12-21T10:15:33.138Z,91.06
2018-12-21T10:16:33.114Z,91.37
2018-12-21T10:17:33.116Z,91.16
2018-12-21T10:18:33.130Z,91.16
2018-12-21T10:19:33.091Z,91.37
2018-12-21T10:20:33.064Z,91.47
2018-12-21T10:21:33.057Z,90.29
2018-12-21T10:22:33.062Z,90.54
2018-12-21T10:23:33.048Z,90.44
2018-12-21T10:24:33.044Z,90.33
2018-12-21T10:25:33.009Z,89.92
2018-12-21T10:26:33.003Z,89.98
2018-12-21T10:27:32.987Z,90.19
2018-12-21T10:28:32.991Z,90.08
2018-12-21T10:29:32.976Z,90.08
2018-12-21T10:30:32.978Z,90.44
2018-12-21T10:31:32.949Z,90.50
2018-12-21T10:32:32.942Z,90.54
2018-12-21T10:33:32.917Z,89.92
2018-12-21T10:34:32.923Z,90.75
2018-12-21T10:35:32.936Z,90.02
2018-12-21T10:36:32.917Z,90.23
2018-12-21T10:37:32.877Z,90.29
2018-12-21T10:38:32.871Z,90.50
2018-12-21T10:39:32.869Z,90.50
2018-12-21T10:40:32.841Z,90.29
2018-12-21T10:41:32.868Z,90.19
2018-12-21T10:42:32.824Z,90.39
2018-12-21T10:43:32.853Z,90.39
2018-12-21T10:44:32.803Z,89.98
2018-12-21T10:45:41.388Z,89.36
2018-12-21T10:46:33.815Z,89.46
2018-12-21T10:47:32.761Z,88.84
2018-12-21T10:48:32.784Z,88.63
2018-12-21T10:49:32.739Z,88.53
2018-12-21T10:50:32.740Z,88.73
2018-12-21T10:51:32.722Z,88.11
2018-12-21T10:52:32.854Z,88.63
2018-12-21T10:53:32.692Z,88.32
2018-12-21T10:54:32.684Z,88.42
2018-12-21T10:55:32.722Z,88.11
2018-12-21T10:56:32.678Z,88.42
2018-12-21T10:57:32.741Z,88.21
2018-12-21T10:58:32.653Z,88.32
2018-12-21T10:59:32.642Z,88.53
2018-12-21T11:00:32.680Z,88.11
2018-12-21T11:01:32.620Z,88.42
2018-12-21T11:02:32.607Z,88.32
2018-12-21T11:03:32.635Z,88.42
2018-12-21T11:04:32.578Z,88.21
2018-12-21T11:05:32.583Z,88.36
2018-12-21T11:06:32.573Z,88.42
2018-12-21T11:07:32.639Z,88.67
2018-12-21T11:08:32.630Z,89.36
2018-12-21T11:09:32.566Z,89.67
2018-12-21T11:10:32.619Z,89.71
2018-12-21T11:11:32.508Z,90.33
2018-12-21T11:12:32.488Z,90.23
2018-12-21T11:13:32.484Z,90.33
2018-12-21T11:14:32.494Z,90.33
2018-12-21T11:15:32.487Z,90.02
2018-12-21T11:16:32.458Z,90.75
2018-12-21T11:17:32.461Z,90.44
2018-12-21T11:18:32.472Z,90.54
2018-12-21T11:19:33.430Z,90.75
2018-12-21T11:20:33.547Z,90.64
2018-12-21T11:21:32.444Z,91.16
2018-12-21T11:22:32.373Z,90.33
2018-12-21T11:23:33.429Z,90.54
2018-12-21T11:24:35.623Z,90.54
2018-12-21T11:25:32.385Z,90.12
2018-12-21T11:26:32.349Z,90.17
2018-12-21T11:27:32.328Z,90.79
2018-12-21T11:28:33.319Z,90.44
2018-12-21T11:29:32.298Z,91.31
2018-12-21T11:30:32.297Z,91.06
2018-12-21T11:31:32.307Z,91.00
2018-12-21T11:32:32.297Z,91.83
2018-12-21T11:33:33.232Z,91.83
2018-12-21T11:34:32.248Z,91.62
2018-12-21T11:35:32.262Z,92.14
2018-12-21T11:36:32.262Z,92.86
2018-12-21T11:37:32.275Z,92.86
2018-12-21T11:38:32.210Z,93.07
2018-12-21T11:39:32.264Z,92.69
2018-12-21T11:40:32.247Z,93.12
2018-12-21T11:41:32.193Z,92.90
2018-12-21T11:42:32.204Z,93.12
2018-12-21T11:43:32.243Z,92.80
2018-12-21T11:44:32.251Z,93.32
2018-12-21T11:45:32.278Z,93.22
2018-12-21T11:46:32.821Z,93.12
2018-12-21T11:47:33.155Z,93.01
2018-12-21T11:48:33.120Z,93.32
2018-12-21T11:49:32.094Z,93.43
2018-12-21T11:50:32.124Z,93.32
2018-12-21T11:51:44.074Z,94.15
2018-12-21T11:52:32.393Z,93.53
2018-12-21T11:53:43.621Z,93.74
2018-12-21T11:54:32.190Z,93.43
2018-12-21T11:55:32.510Z,93.57
2018-12-21T11:56:34.451Z,93.43
2018-12-21T11:57:32.231Z,93.95
2018-12-21T11:58:32.388Z,93.95
2018-12-21T11:59:32.104Z,93.74
2018-12-21T12:00:43.524Z,93.84
2018-12-21T12:01:32.301Z,93.78
2018-12-21T12:02:32.410Z,94.30
2018-12-21T12:03:32.221Z,94.20
2018-12-21T12:04:32.594Z,93.88
2018-12-21T12:05:31.986Z,93.84
2018-12-21T12:06:32.837Z,93.63
2018-12-21T12:07:31.884Z,94.15
2018-12-21T12:09:44.224Z,94.57
2018-12-21T12:10:43.976Z,94.88
2018-12-21T12:11:43.987Z,94.88
2018-12-21T12:12:43.866Z,94.57
2018-12-21T12:14:14.935Z,94.46
2018-12-21T12:14:44.621Z,94.57
2018-12-21T12:15:44.068Z,94.67
2018-12-21T12:16:43.827Z,94.88
2018-12-21T12:17:53.608Z,94.67
2018-12-21T12:18:44.009Z,95.19
2018-12-21T12:19:43.898Z,95.40
2018-12-21T12:20:43.874Z,95.19
2018-12-21T12:22:55.734Z,95.29
2018-12-21T12:24:06.154Z,94.57
2018-12-21T12:25:05.704Z,95.09
2018-12-21T12:25:55.966Z,94.67
2018-12-21T12:26:54.938Z,94.78
2018-12-21T12:27:55.065Z,94.36
2018-12-21T12:28:54.739Z,94.57
2018-12-21T12:29:55.286Z,94.57
2018-12-21T12:31:04.315Z,94.67
2018-12-21T12:31:55.115Z,94.67
2018-12-21T12:32:54.883Z,95.19
2018-12-21T12:33:55.071Z,94.67
2018-12-21T12:34:54.841Z,94.78
2018-12-21T12:37:20.110Z,94.88
2018-12-21T12:38:19.446Z,94.88
2018-12-21T12:39:19.256Z,94.71
2018-12-21T12:41:38.456Z,94.71
2018-12-21T12:42:51.718Z,94.71
2018-12-21T12:46:24.531Z,95.09
2018-12-21T12:46:57.562Z,95.13
2018-12-21T12:47:56.027Z,95.03
2018-12-21T12:49:09.013Z,95.23
2018-12-21T12:49:58.067Z,95.29
2018-12-21T12:50:56.010Z,95.03
2018-12-21T12:51:55.970Z,95.03
2018-12-21T12:52:57.607Z,95.23
2018-12-21T12:55:42.962Z,95.03
2018-12-21T12:56:42.481Z,95.19
2018-12-21T12:57:40.401Z,95.03
2018-12-21T12:58:31.346Z,94.98
2018-12-21T13:00:50.890Z,95.19
2018-12-21T13:01:44.666Z,94.88
2018-12-21T13:02:43.789Z,94.88